OA09 weather

Madison Health Heliport
London, Ohio, United States

Public forecast

Using degrees Fahrenheit for public forecast. Weather courtesy of forecast.io.

Closest aviation weather report (METAR) to Madison Health Heliport

Closest report is Madison County Airport, 2.4 nm (4.5 km) N. Retrieved 2020/05/31 22:35 UTC (10 minutes ago):

KUYF 312235Z AUTO 02009G14KT 10SM CLR 18/00 A3026 RMK AO2

Closest aviation forecast (TAF) to Madison Health Heliport

Closest forecast is Rickenbacker International Airport, 24.7 nm (45.7 km) E. Retrieved 2020/05/31 18:28 UTC (4 hours ago):

TAF KLCK 311725Z 3118/0118 35009KT P6SM FEW040 FM010000 VRB03KT P6SM SCT250 FM011500 19005KT P6SM SCT250